Time;durP1;ratioP1;P1;durP2;ratioP2;P2;SDS_P1;SDS_P2;PMS_P1;PMS_P2;Temp;Humidity;BMP_temperature;BMP_pressure;BME280_temperature;BME280_humidity;BME280_pressure;Samples;Min_cycle;Max_cycle;Signal;HPM_P1;HPM_P2
2021/12/02 00:00:43;;;;;;;;;;;;;;;3.75;63.10;99436.16;5029602;28;19923;-90
2021/12/02 00:03:09;;;;;;;;;;;;;;;3.72;63.21;99430.91;5041593;28;19928;-90
2021/12/02 00:05:35;;;;;;;;;;;;;;;3.43;63.47;99424.53;5049384;28;19916;-90
2021/12/02 00:08:00;;;;;;;;;;;;;;;3.40;63.83;99431.50;5034632;28;19928;-91
2021/12/02 00:10:30;;;;;;;;;;;;;;;3.40;63.72;99431.50;5029273;28;19913;-89
2021/12/02 00:12:56;;;;;;;;;;;;;;;3.54;62.96;99425.53;5029382;28;19913;-87
2021/12/02 00:15:25;;;;;;;;;;;;;;;3.53;62.64;99419.44;5028889;28;19983;-88
2021/12/02 00:18:08;;;;;;;;;;;;;;;3.19;63.31;99428.66;5029238;28;19928;-87
2021/12/02 00:23:28;;;;;;;;;;;;;;;3.20;63.75;99428.69;5028831;28;19987;-88
2021/12/02 00:25:55;;;;;;;;;;;;;;;2.71;64.30;99420.31;5028954;28;20315;-88
2021/12/02 00:28:21;;;;;;;;;;;;;;;2.68;64.69;99436.75;5037476;28;19917;-88
2021/12/02 00:30:46;;;;;;;;;;;;;;;2.67;65.27;99445.44;5048190;28;19920;-88
2021/12/02 00:33:13;;;;;;;;;;;;;;;2.73;65.32;99448.97;5048821;28;19917;-87
2021/12/02 00:35:39;;;;;;;;;;;;;;;2.80;64.52;99445.59;5048771;28;19913;-89
2021/12/02 00:38:05;;;;;;;;;;;;;;;2.67;65.94;99454.97;5036699;28;20007;-89
2021/12/02 00:40:32;;;;;;;;;;;;;;;2.73;65.80;99446.38;5048895;28;20478;-90
2021/12/02 00:42:59;;;;;;;;;;;;;;;2.73;66.61;99433.34;5048541;28;19917;-89
2021/12/02 00:45:26;;;;;;;;;;;;;;;2.82;66.45;99430.84;5048774;28;19913;-90
2021/12/02 00:47:52;;;;;;;;;;;;;;;2.89;66.57;99432.69;5032715;28;20011;-90
2021/12/02 00:50:17;;;;;;;;;;;;;;;2.89;66.31;99435.28;5037163;28;20019;-89
2021/12/02 00:52:43;;;;;;;;;;;;;;;2.73;66.18;99449.84;5028616;28;19924;-90
2021/12/02 00:55:09;;;;;;;;;;;;;;;2.71;65.41;99445.50;5029115;28;19974;-89
2021/12/02 00:57:38;;;;;;;;;;;;;;;2.84;65.58;99435.25;5042451;28;19920;-88
2021/12/02 01:00:05;;;;;;;;;;;;;;;2.58;65.81;99437.50;5028736;28;19917;-89
2021/12/02 01:02:32;;;;;;;;;;;;;;;2.68;65.38;99443.72;5046867;28;20470;-89
2021/12/02 01:04:58;;;;;;;;;;;;;;;2.73;65.04;99444.63;5044539;28;19929;-89
2021/12/02 01:07:23;;;;;;;;;;;;;;;2.81;64.95;99435.19;5045511;28;19920;-90
2021/12/02 01:09:49;;;;;;;;;;;;;;;2.88;64.73;99425.72;5048778;28;19963;-90
2021/12/02 01:12:15;;;;;;;;;;;;;;;2.76;64.98;99425.56;5047889;28;19913;-89
2021/12/02 01:14:43;;;;;;;;;;;;;;;2.57;64.91;99424.47;5044046;28;19920;-90
2021/12/02 01:17:08;;;;;;;;;;;;;;;2.50;65.07;99428.69;5039270;28;19920;-87
2021/12/02 01:19:33;;;;;;;;;;;;;;;2.17;65.79;99430.00;5027365;28;20328;-87
2021/12/02 01:22:00;;;;;;;;;;;;;;;2.25;65.81;99419.69;5028021;28;19932;-87
2021/12/02 01:24:27;;;;;;;;;;;;;;;2.25;65.84;99419.69;5027320;28;19982;-87
2021/12/02 01:26:53;;;;;;;;;;;;;;;2.20;65.76;99411.81;5027867;28;20066;-88
2021/12/02 01:29:20;;;;;;;;;;;;;;;2.25;65.78;99422.28;5044766;28;19917;-86
2021/12/02 01:31:47;;;;;;;;;;;;;;;2.19;66.13;99422.22;5043863;28;19932;-87
2021/12/02 01:34:13;;;;;;;;;;;;;;;2.26;66.26;99413.66;5026651;28;20498;-87
2021/12/02 01:36:40;;;;;;;;;;;;;;;2.30;66.31;99416.31;5027161;28;19952;-87
2021/12/02 01:39:07;;;;;;;;;;;;;;;2.41;65.70;99413.84;5043456;28;19986;-89
2021/12/02 01:41:42;;;;;;;;;;;;;;;2.40;65.92;99406.88;5049850;28;19935;-86
2021/12/02 01:44:10;;;;;;;;;;;;;;;2.30;66.67;99402.41;5040050;28;19917;-87
2021/12/02 01:46:36;;;;;;;;;;;;;;;2.26;66.70;99396.28;5027554;28;19917;-87
2021/12/02 01:49:05;;;;;;;;;;;;;;;2.25;66.98;99407.53;5041374;28;19977;-87
2021/12/02 01:51:38;;;;;;;;;;;;;;;2.19;66.34;99406.59;5047308;28;19955;-87
2021/12/02 01:54:09;;;;;;;;;;;;;;;2.25;66.24;99415.34;5029278;28;19978;-87
2021/12/02 01:56:42;;;;;;;;;;;;;;;2.30;65.60;99416.31;5026717;28;19917;-87
2021/12/02 01:59:09;;;;;;;;;;;;;;;2.29;65.47;99416.28;5026848;28;19927;-87
2021/12/02 02:01:36;;;;;;;;;;;;;;;2.22;66.54;99411.84;5045943;28;20502;-87
2021/12/02 02:04:01;;;;;;;;;;;;;;;2.18;66.78;99421.34;5046830;28;19917;-86
2021/12/02 02:06:29;;;;;;;;;;;;;;;2.27;66.66;99423.19;5030641;28;19998;-86
2021/12/02 02:08:55;;;;;;;;;;;;;;;2.28;66.73;99424.94;5040234;28;19924;-86
2021/12/02 02:11:23;;;;;;;;;;;;;;;2.39;66.09;99420.75;5046880;28;19921;-86
2021/12/02 02:13:49;;;;;;;;;;;;;;;2.31;66.39;99419.78;5046787;28;19923;-86
2021/12/02 02:16:14;;;;;;;;;;;;;;;2.24;66.58;99416.22;5041706;28;19917;-86
2021/12/02 02:18:41;;;;;;;;;;;;;;;2.29;65.93;99419.75;5025948;28;20345;-86
2021/12/02 02:21:10;;;;;;;;;;;;;;;2.29;66.02;99417.16;5036166;28;19924;-86
2021/12/02 02:23:39;;;;;;;;;;;;;;;2.24;66.10;99417.94;5046402;28;19917;-87
2021/12/02 02:26:06;;;;;;;;;;;;;;;2.27;66.00;99421.47;5033696;28;19942;-87
2021/12/02 02:28:31;;;;;;;;;;;;;;;2.22;65.47;99422.25;5036538;28;19920;-86
2021/12/02 02:30:57;;;;;;;;;;;;;;;2.02;66.43;99425.44;5027113;28;20339;-87
2021/12/02 02:33:23;;;;;;;;;;;;;;;2.06;66.90;99421.16;5027361;28;19917;-87
2021/12/02 02:35:49;;;;;;;;;;;;;;;1.99;67.00;99422.78;5026935;28;19913;-88
2021/12/02 02:38:15;;;;;;;;;;;;;;;2.06;66.62;99426.38;5026482;28;19921;-87
2021/12/02 02:40:43;;;;;;;;;;;;;;;2.00;67.29;99432.34;5027175;28;19975;-86
2021/12/02 02:43:09;;;;;;;;;;;;;;;1.94;67.89;99425.31;5025349;28;20311;-87
2021/12/02 02:45:36;;;;;;;;;;;;;;;1.58;70.72;99434.28;5027481;28;19917;-87
2021/12/02 02:48:01;;;;;;;;;;;;;;;1.69;71.26;99433.59;5036158;28;19917;-86
2021/12/02 02:50:26;;;;;;;;;;;;;;;1.80;71.20;99429.44;5046337;28;20307;-87
2021/12/02 02:53:03;;;;;;;;;;;;;;;2.00;70.53;99432.34;5039464;28;19920;-86
2021/12/02 02:55:29;;;;;;;;;;;;;;;2.08;69.67;99437.66;5041406;28;20394;-88
2021/12/02 03:01:00;;;;;;;;;;;;;;;2.28;68.91;99438.81;5034759;28;19913;-91
2021/12/02 03:03:36;;;;;;;;;;;;;;;2.36;67.64;99438.94;5026515;28;19917;-87
2021/12/02 03:06:19;;;;;;;;;;;;;;;2.13;68.54;99443.81;5038925;28;20062;-87
2021/12/02 03:08:53;;;;;;;;;;;;;;;2.41;67.71;99439.88;5046912;28;19923;-86
2021/12/02 03:11:19;;;;;;;;;;;;;;;2.19;68.10;99443.03;5035687;28;19928;-86
2021/12/02 03:13:49;;;;;;;;;;;;;;;1.99;68.94;99447.94;5045216;28;19927;-85
2021/12/02 03:18:58;;;;;;;;;;;;;;;2.22;67.86;99454.34;5029923;28;20314;-87
2021/12/02 03:21:24;;;;;;;;;;;;;;;2.11;68.01;99456.78;5061019;28;19917;-86
2021/12/02 03:23:51;;;;;;;;;;;;;;;2.22;66.94;99454.34;5027867;28;19921;-86
2021/12/02 03:26:16;;;;;;;;;;;;;;;1.99;66.55;99450.53;5043963;28;19924;-85
2021/12/02 03:28:42;;;;;;;;;;;;;;;1.88;65.94;99446.03;5044671;28;19944;-85
2021/12/02 03:31:10;;;;;;;;;;;;;;;1.64;65.97;99449.13;5029871;28;19916;-87
2021/12/02 03:33:35;;;;;;;;;;;;;;;1.71;66.15;99450.94;5029125;28;19921;-86
2021/12/02 03:36:01;;;;;;;;;;;;;;;1.69;66.11;99452.66;5029449;28;20318;-85
2021/12/02 03:38:28;;;;;;;;;;;;;;;1.56;66.32;99445.50;5029218;28;20883;-86
2021/12/02 03:40:54;;;;;;;;;;;;;;;1.54;66.36;99455.84;5042145;28;19921;-86
2021/12/02 03:43:19;;;;;;;;;;;;;;;1.02;67.92;99460.97;5029694;28;19923;-86
2021/12/02 03:45:44;;;;;;;;;;;;;;;0.61;69.36;99467.94;5028726;28;19921;-88
2021/12/02 03:48:10;;;;;;;;;;;;;;;0.80;69.55;99461.38;5029342;28;19986;-89
2021/12/02 03:50:36;;;;;;;;;;;;;;;0.97;69.23;99460.00;5047805;28;20310;-89
2021/12/02 03:53:01;;;;;;;;;;;;;;;0.94;69.40;99453.88;5035069;28;20288;-88
2021/12/02 03:55:26;;;;;;;;;;;;;;;0.98;70.06;99456.56;5027607;28;19974;-88
2021/12/02 03:57:52;;;;;;;;;;;;;;;1.12;69.42;99450.78;5029383;28;20015;-87
2021/12/02 04:00:17;;;;;;;;;;;;;;;1.21;68.70;99446.63;5043605;28;19917;-87
2021/12/02 04:02:42;;;;;;;;;;;;;;;1.27;68.74;99456.25;5029692;28;19917;-87
2021/12/02 04:05:08;;;;;;;;;;;;;;;1.38;67.83;99452.13;5029272;28;19924;-87
2021/12/02 04:07:33;;;;;;;;;;;;;;;1.50;67.58;99453.19;5029179;28;19921;-85
2021/12/02 04:09:59;;;;;;;;;;;;;;;1.43;67.92;99447.88;5040644;28;20283;-86
2021/12/02 04:15:02;;;;;;;;;;;;;;;1.20;68.37;99459.56;5028324;28;20062;-87
2021/12/02 04:17:43;;;;;;;;;;;;;;;0.77;69.18;99469.13;5029002;28;19921;-87
2021/12/02 04:20:11;;;;;;;;;;;;;;;0.98;68.88;99468.69;5028601;28;19921;-88
2021/12/02 04:22:36;;;;;;;;;;;;;;;1.08;67.76;99457.59;5028581;28;19921;-87
2021/12/02 04:25:02;;;;;;;;;;;;;;;1.17;67.84;99456.91;5036973;28;19921;-87
2021/12/02 04:27:27;;;;;;;;;;;;;;;1.14;67.92;99449.06;5048536;28;20738;-89
2021/12/02 04:29:53;;;;;;;;;;;;;;;1.14;67.32;99449.06;5034236;28;19925;-86
2021/12/02 04:32:18;;;;;;;;;;;;;;;1.17;67.50;99450.00;5036399;28;19928;-89
2021/12/02 04:34:44;;;;;;;;;;;;;;;1.09;67.72;99448.13;5027964;28;19924;-87
2021/12/02 04:37:09;;;;;;;;;;;;;;;1.18;67.79;99441.34;5028346;28;19917;-90
2021/12/02 04:39:34;;;;;;;;;;;;;;;1.02;67.92;99440.19;5036321;28;19928;-90
2021/12/02 04:42:00;;;;;;;;;;;;;;;0.93;68.11;99444.31;5034894;28;20601;-91
2021/12/02 04:44:25;;;;;;;;;;;;;;;0.36;69.25;99454.41;5033515;28;19923;-89
2021/12/02 04:46:51;;;;;;;;;;;;;;;0.35;69.75;99448.31;5048070;28;19923;-88
2021/12/02 04:49:17;;;;;;;;;;;;;;;0.35;69.96;99453.50;5048089;28;20469;-84
2021/12/02 04:51:42;;;;;;;;;;;;;;;0.57;69.78;99468.69;5035012;28;19917;-85
2021/12/02 04:54:07;;;;;;;;;;;;;;;0.59;70.02;99461.81;5029272;28;19919;-85
2021/12/02 04:56:33;;;;;;;;;;;;;;;0.62;69.74;99467.97;5048632;28;19917;-85
2021/12/02 04:58:58;;;;;;;;;;;;;;;0.42;70.16;99466.63;5045839;28;19929;-86
2021/12/02 05:01:23;;;;;;;;;;;;;;;0.04;71.35;99464.91;5033012;28;19928;-85
2021/12/02 05:03:49;;;;;;;;;;;;;;;-0.07;72.67;99459.47;5028188;28;19921;-85
2021/12/02 05:06:14;;;;;;;;;;;;;;;-0.08;73.22;99454.25;5027346;28;20443;-84
2021/12/02 05:08:39;;;;;;;;;;;;;;;0.15;72.38;99453.06;5030932;28;20381;-87
2021/12/02 05:11:05;;;;;;;;;;;;;;;0.24;71.31;99454.13;5039175;28;19924;-86
2021/12/02 05:13:30;;;;;;;;;;;;;;;0.27;70.27;99456.81;5048191;28;19916;-86
2021/12/02 05:15:55;;;;;;;;;;;;;;;0.13;70.11;99462.53;5033441;28;20421;-87
2021/12/02 05:18:21;;;;;;;;;;;;;;;0.27;70.24;99456.81;5028188;28;19923;-87
2021/12/02 05:20:46;;;;;;;;;;;;;;;0.47;69.46;99458.09;5039517;28;20007;-86
2021/12/02 05:23:12;;;;;;;;;;;;;;;0.53;69.24;99462.56;5027487;28;19976;-86
2021/12/02 05:25:37;;;;;;;;;;;;;;;0.66;68.85;99458.50;5028172;28;19917;-88
2021/12/02 05:28:03;;;;;;;;;;;;;;;0.63;68.57;99459.31;5043218;28;19917;-88
2021/12/02 05:30:28;;;;;;;;;;;;;;;0.71;68.27;99467.25;5041627;28;20397;-87
2021/12/02 05:32:53;;;;;;;;;;;;;;;0.71;68.08;99465.56;5035148;28;19994;-87
2021/12/02 05:35:19;;;;;;;;;;;;;;;0.78;68.23;99456.16;5027144;28;19909;-88
2021/12/02 05:37:44;;;;;;;;;;;;;;;0.80;68.87;99462.25;5026702;28;20031;-87
2021/12/02 05:40:10;;;;;;;;;;;;;;;0.88;69.08;99452.03;5031701;28;19943;-86
2021/12/02 05:42:35;;;;;;;;;;;;;;;0.72;69.75;99461.22;5033484;28;19920;-89
2021/12/02 05:45:01;;;;;;;;;;;;;;;0.78;70.50;99452.69;5038991;28;19921;-89
2021/12/02 05:47:26;;;;;;;;;;;;;;;0.92;70.69;99474.63;5035986;28;19917;-85
2021/12/02 05:49:51;;;;;;;;;;;;;;;1.07;70.29;99464.53;5033442;28;19943;-86
2021/12/02 05:52:17;;;;;;;;;;;;;;;1.05;70.13;99466.25;5033517;28;19920;-86
2021/12/02 05:54:42;;;;;;;;;;;;;;;1.13;69.91;99474.19;5030870;28;19912;-86
2021/12/02 05:57:08;;;;;;;;;;;;;;;1.36;69.14;99471.13;5041629;28;19927;-84
2021/12/02 05:59:33;;;;;;;;;;;;;;;1.21;70.08;99469.13;5042379;28;19928;-84
2021/12/02 06:01:58;;;;;;;;;;;;;;;1.39;69.91;99463.38;5047898;28;19920;-84
2021/12/02 06:04:24;;;;;;;;;;;;;;;1.57;69.57;99457.66;5029932;28;19916;-89
2021/12/02 06:06:50;;;;;;;;;;;;;;;1.64;69.35;99456.03;5025881;28;20363;-85
2021/12/02 06:09:18;;;;;;;;;;;;;;;1.83;69.10;99460.69;5042973;28;19917;-85
2021/12/02 06:11:44;;;;;;;;;;;;;;;1.77;69.26;99460.59;5047398;28;19916;-88
2021/12/02 06:14:09;;;;;;;;;;;;;;;1.88;69.05;99466.84;5044745;28;19920;-85
2021/12/02 06:16:34;;;;;;;;;;;;;;;2.09;72.62;99461.09;5047127;28;20019;-86
2021/12/02 06:19:00;;;;;;;;;;;;;;;2.58;74.11;99453.13;5047117;28;19976;-86
2021/12/02 06:21:25;;;;;;;;;;;;;;;2.94;73.75;99454.44;5047302;28;19916;-86
2021/12/02 06:23:50;;;;;;;;;;;;;;;3.48;72.10;99462.00;5046226;28;19923;-88
2021/12/02 06:26:16;;;;;;;;;;;;;;;3.74;71.45;99452.66;5047615;28;19924;-89
2021/12/02 06:28:41;;;;;;;;;;;;;;;4.00;69.92;99467.69;5047004;28;20447;-87
2021/12/02 06:31:06;;;;;;;;;;;;;;;4.37;69.20;99461.81;5030048;28;19952;-87
2021/12/02 06:33:32;;;;;;;;;;;;;;;4.39;66.74;99457.50;5026887;28;20059;-86
2021/12/02 06:35:58;;;;;;;;;;;;;;;4.47;67.20;99463.66;5035207;28;19920;-87
2021/12/02 06:38:24;;;;;;;;;;;;;;;4.83;65.84;99468.19;5037271;28;20138;-88
2021/12/02 06:40:49;;;;;;;;;;;;;;;4.88;64.53;99459.50;5045759;28;19916;-88
2021/12/02 06:43:15;;;;;;;;;;;;;;;4.97;64.50;99462.13;5045215;28;19917;-88
2021/12/02 06:45:41;;;;;;;;;;;;;;;5.09;63.78;99459.56;5025073;28;19928;-87
2021/12/02 06:48:07;;;;;;;;;;;;;;;5.20;63.56;99455.28;5039440;28;19921;-89
2021/12/02 06:50:34;;;;;;;;;;;;;;;5.41;63.12;99453.56;5030630;28;20029;-87
2021/12/02 06:52:59;;;;;;;;;;;;;;;5.20;61.77;99459.59;5043966;28;19917;-88
2021/12/02 06:55:25;;;;;;;;;;;;;;;5.33;62.34;99468.34;5037912;28;19920;-87
2021/12/02 06:57:50;;;;;;;;;;;;;;;5.59;61.50;99465.78;5044707;28;21491;-87
2021/12/02 07:00:17;;;;;;;;;;;;;;;5.18;60.62;99456.97;5037489;28;20003;-87
2021/12/02 07:02:43;;;;;;;;;;;;;;;5.00;61.26;99459.53;5046915;28;19916;-88
2021/12/02 07:05:10;;;;;;;;;;;;;;;5.20;62.97;99465.72;5047507;28;19928;-86
2021/12/02 07:07:36;;;;;;;;;;;;;;;5.63;61.47;99464.06;5036633;28;19916;-87
2021/12/02 07:10:04;;;;;;;;;;;;;;;5.76;60.90;99457.97;5038919;28;19916;-89
2021/12/02 07:12:41;;;;;;;;;;;;;;;5.20;61.41;99457.00;5038289;28;19913;-87
2021/12/02 07:15:28;;;;;;;;;;;;;;;4.96;62.37;99463.03;5036962;28;19917;-87
2021/12/02 07:17:58;;;;;;;;;;;;;;;5.13;62.44;99460.47;5038564;28;20007;-88
2021/12/02 07:20:25;;;;;;;;;;;;;;;5.55;61.78;99451.84;5035847;28;20450;-88
2021/12/02 07:22:50;;;;;;;;;;;;;;;5.71;61.30;99449.22;5037936;28;19940;-88
2021/12/02 07:25:15;;;;;;;;;;;;;;;5.72;62.14;99451.84;5038121;28;20447;-88
2021/12/02 07:27:42;;;;;;;;;;;;;;;5.95;61.56;99457.97;5040343;28;20049;-89
2021/12/02 07:30:08;;;;;;;;;;;;;;;6.32;60.49;99463.22;5038236;28;19921;-89
2021/12/02 07:32:40;;;;;;;;;;;;;;;6.40;59.94;99462.34;5040186;28;20078;-87
2021/12/02 07:35:09;;;;;;;;;;;;;;;6.73;59.27;99464.88;5039703;28;19921;-87
2021/12/02 07:37:35;;;;;;;;;;;;;;;6.78;58.29;99455.22;5038786;28;19920;-87
2021/12/02 07:40:00;;;;;;;;;;;;;;;6.44;59.44;99460.56;5040556;28;19917;-88
2021/12/02 07:42:26;;;;;;;;;;;;;;;6.72;58.66;99458.78;5038354;28;19928;-87
2021/12/02 07:44:51;;;;;;;;;;;;;;;6.92;58.86;99463.94;5039174;28;19920;-87
2021/12/02 07:47:16;;;;;;;;;;;;;;;7.12;58.42;99447.22;5039318;28;19920;-88
2021/12/02 07:49:43;;;;;;;;;;;;;;;7.16;58.54;99441.09;5039967;28;19924;-88
2021/12/02 07:52:08;;;;;;;;;;;;;;;7.35;57.77;99434.88;5038133;28;19921;-88
2021/12/02 07:54:34;;;;;;;;;;;;;;;7.51;56.09;99429.53;5038760;28;19921;-88
2021/12/02 07:57:00;;;;;;;;;;;;;;;7.43;56.31;99439.19;5039256;28;19924;-89
2021/12/02 07:59:25;;;;;;;;;;;;;;;7.49;56.96;99442.66;5042638;28;19917;-89
2021/12/02 08:01:51;;;;;;;;;;;;;;;7.79;56.00;99435.44;5044403;28;20407;-89
2021/12/02 08:04:16;;;;;;;;;;;;;;;7.77;56.12;99438.94;5029640;28;19925;-89
2021/12/02 08:06:42;;;;;;;;;;;;;;;7.62;56.38;99432.09;5028611;28;19920;-88
2021/12/02 08:09:12;;;;;;;;;;;;;;;7.71;55.90;99434.63;5028234;28;20000;-88
2021/12/02 08:11:37;;;;;;;;;;;;;;;7.68;56.16;99439.91;5029018;28;19924;-88
2021/12/02 08:14:07;;;;;;;;;;;;;;;7.57;56.91;99439.09;5028032;28;19917;-89
2021/12/02 08:16:32;;;;;;;;;;;;;;;7.36;57.89;99433.13;5047619;28;19916;-88
2021/12/02 08:19:00;;;;;;;;;;;;;;;7.64;57.44;99431.16;5048501;28;19923;-87
2021/12/02 08:21:26;;;;;;;;;;;;;;;7.85;57.12;99432.75;5038363;28;20391;-86
2021/12/02 08:23:51;;;;;;;;;;;;;;;7.70;57.57;99432.88;5027193;28;19975;-88
2021/12/02 08:26:17;;;;;;;;;;;;;;;7.87;57.10;99425.72;5029209;28;19940;-85
2021/12/02 08:28:42;;;;;;;;;;;;;;;7.76;57.14;99426.72;5028145;28;20319;-86
2021/12/02 08:31:07;;;;;;;;;;;;;;;7.56;58.33;99430.34;5028939;28;19913;-86
2021/12/02 08:33:32;;;;;;;;;;;;;;;7.83;57.37;99431.91;5028640;28;20303;-85
2021/12/02 08:35:58;;;;;;;;;;;;;;;7.84;56.96;99433.63;5029159;28;19936;-86
2021/12/02 08:38:31;;;;;;;;;;;;;;;7.82;57.44;99424.06;5026683;28;20008;-87
2021/12/02 08:40:58;;;;;;;;;;;;;;;7.43;58.73;99432.22;5028678;28;20010;-85
2021/12/02 08:43:23;;;;;;;;;;;;;;;7.63;58.58;99424.19;5028088;28;20059;-86
2021/12/02 08:45:48;;;;;;;;;;;;;;;7.68;58.20;99416.28;5028731;28;20016;-86
2021/12/02 08:48:14;;;;;;;;;;;;;;;7.74;56.72;99416.25;5028059;28;20307;-86
2021/12/02 08:50:40;;;;;;;;;;;;;;;7.87;57.38;99417.00;5028355;28;19971;-85
2021/12/02 08:53:06;;;;;;;;;;;;;;;7.87;57.62;99411.75;5028608;28;19916;-87
2021/12/02 08:55:32;;;;;;;;;;;;;;;7.84;57.38;99412.63;5027825;28;19927;-87
2021/12/02 08:57:58;;;;;;;;;;;;;;;8.12;56.36;99417.63;5027794;28;19940;-88
2021/12/02 09:00:27;;;;;;;;;;;;;;;7.87;56.27;99404.72;5026335;28;19952;-87
2021/12/02 09:02:55;;;;;;;;;;;;;;;7.96;57.09;99393.28;5026981;28;19928;-88
2021/12/02 09:05:20;;;;;;;;;;;;;;;8.21;56.61;99395.66;5028212;28;19952;-86
2021/12/02 09:07:46;;;;;;;;;;;;;;;8.41;56.19;99387.56;5025553;28;20476;-87
2021/12/02 09:10:11;;;;;;;;;;;;;;;8.45;56.01;99372.66;5027623;28;19941;-87
2021/12/02 09:12:37;;;;;;;;;;;;;;;8.39;56.12;99370.97;5027959;28;19927;-87
2021/12/02 09:15:03;;;;;;;;;;;;;;;8.44;55.95;99384.94;5027498;28;19917;-86
2021/12/02 09:17:30;;;;;;;;;;;;;;;8.71;55.45;99374.97;5027762;28;19924;-86
2021/12/02 09:19:55;;;;;;;;;;;;;;;8.62;55.68;99368.09;5026660;28;20355;-85
2021/12/02 09:22:21;;;;;;;;;;;;;;;8.62;54.77;99365.47;5028335;28;20427;-87
2021/12/02 09:24:46;;;;;;;;;;;;;;;8.82;54.58;99362.59;5027203;28;19920;-86
2021/12/02 09:27:12;;;;;;;;;;;;;;;9.10;53.92;99352.53;5027117;28;19918;-84
2021/12/02 09:29:37;;;;;;;;;;;;;;;9.25;53.31;99353.19;5027621;28;20441;-89
2021/12/02 09:32:03;;;;;;;;;;;;;;;9.49;53.26;99342.28;5026990;28;19921;-86
2021/12/02 09:34:29;;;;;;;;;;;;;;;9.61;52.54;99332.47;5027698;28;19967;-83
2021/12/02 09:36:56;;;;;;;;;;;;;;;9.37;52.83;99326.69;5026645;28;19964;-85
2021/12/02 09:39:21;;;;;;;;;;;;;;;9.40;52.98;99318.72;5027968;28;19999;-86
2021/12/02 09:41:47;;;;;;;;;;;;;;;9.66;52.64;99322.72;5027459;28;20019;-85
2021/12/02 09:44:13;;;;;;;;;;;;;;;9.89;51.50;99324.06;5027077;28;19916;-85
2021/12/02 09:46:40;;;;;;;;;;;;;;;9.97;51.92;99323.03;5027860;28;19921;-85
2021/12/02 09:49:07;;;;;;;;;;;;;;;10.00;51.13;99306.28;5026573;28;19924;-86
2021/12/02 09:51:40;;;;;;;;;;;;;;;9.95;50.01;99301.13;5027457;28;19920;-86
2021/12/02 09:54:09;;;;;;;;;;;;;;;9.39;52.89;99305.59;5038608;28;19955;-85
2021/12/02 09:56:37;;;;;;;;;;;;;;;9.71;51.91;99304.19;5028122;28;20003;-85
2021/12/02 09:59:07;;;;;;;;;;;;;;;9.64;51.17;99298.19;5026973;28;19913;-83
2021/12/02 10:01:44;;;;;;;;;;;;;;;9.86;50.52;99296.00;5028993;28;19913;-84
2021/12/02 10:04:11;;;;;;;;;;;;;;;9.98;50.70;99294.94;5026871;28;19917;-84
2021/12/02 10:06:40;;;;;;;;;;;;;;;10.09;50.20;99298.22;5025192;28;20323;-85
2021/12/02 10:09:26;;;;;;;;;;;;;;;9.84;51.14;99287.28;5026529;28;20004;-86
2021/12/02 10:14:45;;;;;;;;;;;;;;;10.36;49.78;99277.50;5046813;28;19999;-85
2021/12/02 10:17:39;;;;;;;;;;;;;;;10.39;49.64;99280.06;5045329;28;19909;-83
2021/12/02 10:23:09;;;;;;;;;;;;;;;10.31;49.87;99267.00;5030902;28;19965;-85
2021/12/02 10:25:35;;;;;;;;;;;;;;;10.16;49.80;99268.22;5031201;28;20407;-86
2021/12/02 10:28:05;;;;;;;;;;;;;;;9.98;49.71;99260.66;5031029;28;20406;-86
2021/12/02 10:30:30;;;;;;;;;;;;;;;9.89;49.74;99255.56;5030768;28;19917;-85
2021/12/02 10:32:56;;;;;;;;;;;;;;;9.73;50.91;99247.97;5030916;28;19928;-85
2021/12/02 10:35:35;;;;;;;;;;;;;;;10.01;49.91;99253.56;5031119;28;19917;-85
2021/12/02 10:38:01;;;;;;;;;;;;;;;10.22;49.42;99243.47;5031461;28;19917;-86
2021/12/02 10:40:26;;;;;;;;;;;;;;;10.31;48.43;99239.78;5030815;28;19928;-85
2021/12/02 10:42:52;;;;;;;;;;;;;;;10.60;48.19;99230.38;5029415;28;19924;-85
2021/12/02 10:45:28;;;;;;;;;;;;;;;10.66;48.44;99228.50;5030714;28;19913;-85
2021/12/02 10:47:54;;;;;;;;;;;;;;;10.71;49.97;99221.34;5029025;28;19952;-85
2021/12/02 10:50:21;;;;;;;;;;;;;;;10.86;49.46;99227.16;5030974;28;20383;-86
2021/12/02 10:52:46;;;;;;;;;;;;;;;10.89;48.40;99217.41;5030925;28;19931;-86
2021/12/02 10:55:17;;;;;;;;;;;;;;;10.88;48.15;99213.03;5030436;28;19913;-85
2021/12/02 10:57:46;;;;;;;;;;;;;;;10.96;47.58;99209.34;5031008;28;19917;-86
2021/12/02 11:00:13;;;;;;;;;;;;;;;10.84;48.21;99210.50;5030016;28;19948;-85
2021/12/02 11:02:53;;;;;;;;;;;;;;;10.47;47.97;99203.44;5029406;28;19976;-84
2021/12/02 11:05:21;;;;;;;;;;;;;;;10.69;47.38;99207.31;5029642;28;20073;-84
2021/12/02 11:07:53;;;;;;;;;;;;;;;10.72;47.31;99193.19;5029486;28;19928;-84
2021/12/02 11:10:18;;;;;;;;;;;;;;;10.61;47.90;99189.94;5029381;28;19921;-85
2021/12/02 11:12:45;;;;;;;;;;;;;;;10.72;47.67;99193.19;5029614;28;20586;-85
2021/12/02 11:15:21;;;;;;;;;;;;;;;10.74;47.69;99192.25;5043997;28;20315;-85
2021/12/02 11:18:13;;;;;;;;;;;;;;;11.00;47.75;99188.13;5032545;28;19940;-86
2021/12/02 11:20:38;;;;;;;;;;;;;;;10.85;47.78;99186.72;5026191;28;19913;-86
2021/12/02 11:23:09;;;;;;;;;;;;;;;11.09;47.14;99184.38;5029557;28;19936;-85
2021/12/02 11:25:35;;;;;;;;;;;;;;;11.25;47.71;99177.78;5037897;28;20280;-85
2021/12/02 11:28:08;;;;;;;;;;;;;;;11.26;47.30;99171.63;5049383;28;19912;-85
2021/12/02 11:30:35;;;;;;;;;;;;;;;11.32;46.75;99170.56;5039252;28;19951;-84
2021/12/02 11:33:00;;;;;;;;;;;;;;;11.10;46.68;99165.84;5028663;28;19928;-85
2021/12/02 11:35:32;;;;;;;;;;;;;;;11.14;47.09;99171.94;5029531;28;19987;-84
2021/12/02 11:38:01;;;;;;;;;;;;;;;11.26;47.24;99160.16;5029112;28;19916;-83
2021/12/02 11:40:29;;;;;;;;;;;;;;;11.37;46.78;99159.88;5029166;28;19925;-85
2021/12/02 11:42:55;;;;;;;;;;;;;;;11.37;46.97;99160.78;5028938;28;19987;-84
2021/12/02 11:45:21;;;;;;;;;;;;;;;11.26;47.30;99161.06;5028746;28;20361;-85
2021/12/02 11:47:47;;;;;;;;;;;;;;;11.31;46.84;99157.41;5029164;28;19917;-85
2021/12/02 11:50:14;;;;;;;;;;;;;;;11.37;46.64;99155.50;5029568;28;20310;-83
2021/12/02 11:52:40;;;;;;;;;;;;;;;11.66;46.10;99137.97;5029851;28;19948;-83
2021/12/02 11:55:07;;;;;;;;;;;;;;;11.71;45.92;99135.19;5029189;28;20002;-85
2021/12/02 11:57:33;;;;;;;;;;;;;;;11.65;45.96;99144.19;5029098;28;19913;-85
2021/12/02 11:59:59;;;;;;;;;;;;;;;11.40;45.96;99141.31;5028169;28;20347;-86
2021/12/02 12:02:24;;;;;;;;;;;;;;;11.64;45.92;99131.88;5029043;28;19924;-85
2021/12/02 12:04:54;;;;;;;;;;;;;;;11.78;46.05;99126.19;5029330;28;20300;-84
2021/12/02 12:07:21;;;;;;;;;;;;;;;11.79;45.54;99122.63;5031707;28;20003;-83
2021/12/02 12:09:46;;;;;;;;;;;;;;;11.77;45.35;99113.88;5028642;28;19992;-86
2021/12/02 12:12:12;;;;;;;;;;;;;;;11.78;45.43;99116.47;5029041;28;20045;-84
2021/12/02 12:14:38;;;;;;;;;;;;;;;11.85;45.47;99117.19;5028823;28;19932;-85
2021/12/02 12:17:05;;;;;;;;;;;;;;;11.77;45.15;99111.22;5028488;28;19940;-86
2021/12/02 12:19:32;;;;;;;;;;;;;;;11.86;44.74;99110.97;5028884;28;19917;-87
2021/12/02 12:22:01;;;;;;;;;;;;;;;11.79;43.99;99112.94;5028842;28;19923;-85
2021/12/02 12:24:38;;;;;;;;;;;;;;;12.00;43.54;99111.47;5028229;28;20384;-85
2021/12/02 12:27:10;;;;;;;;;;;;;;;12.09;44.07;99106.81;5028263;28;20362;-86
2021/12/02 12:29:35;;;;;;;;;;;;;;;12.07;43.56;99103.34;5046530;28;19916;-86
2021/12/02 12:40:25;;;;;;;;;;;;;;;12.24;43.13;99081.69;5040745;28;19916;-87
2021/12/02 12:42:57;;;;;;;;;;;;;;;12.17;43.38;99075.69;5048238;28;19952;-86
2021/12/02 12:45:36;;;;;;;;;;;;;;;11.84;44.36;99078.44;5048455;28;19920;-90
2021/12/02 12:48:02;;;;;;;;;;;;;;;11.77;44.40;99064.56;5048461;28;19909;-86
2021/12/02 12:50:31;;;;;;;;;;;;;;;11.77;44.24;99075.13;5048482;28;19913;-86
2021/12/02 12:53:02;;;;;;;;;;;;;;;11.78;44.32;99078.63;5048192;28;20015;-87
2021/12/02 12:55:28;;;;;;;;;;;;;;;11.95;43.99;99075.50;5036381;28;20395;-85
2021/12/02 12:58:13;;;;;;;;;;;;;;;12.09;44.14;99070.66;5028746;28;19913;-85
2021/12/02 13:00:41;;;;;;;;;;;;;;;12.01;44.09;99072.69;5028528;28;20015;-87
2021/12/02 13:03:20;;;;;;;;;;;;;;;12.09;43.75;99075.94;5028176;28;19917;-85
2021/12/02 13:05:51;;;;;;;;;;;;;;;12.07;44.64;99068.97;5027463;28;19921;-87
2021/12/02 13:08:18;;;;;;;;;;;;;;;11.91;44.60;99065.91;5027554;28;19952;-84
2021/12/02 13:10:55;;;;;;;;;;;;;;;11.99;44.36;99072.72;5027730;28;20377;-87
2021/12/02 13:13:22;;;;;;;;;;;;;;;12.21;43.78;99061.47;5043267;28;20315;-87
2021/12/02 13:15:47;;;;;;;;;;;;;;;12.04;44.47;99062.00;5047038;28;19931;-86
2021/12/02 13:18:29;;;;;;;;;;;;;;;12.14;44.35;99068.75;5045606;28;19917;-86
2021/12/02 13:20:54;;;;;;;;;;;;;;;12.11;44.82;99070.59;5027740;28;19917;-86